N1NSI Weather Reports


Display with metric or nautical units.
time (UTC)temp
F
wind
direction
speed
MPH
gust
MPH
rain 1hr
in
rain 24hr
in
rain mn
in
humidity
%
barometer
mb
20210512213504 61 5 2.0 8.0 0.00 0.00 0.00 37 1018.4
20210512205006 62 352 2.0 7.0 0.00 0.00 0.00 35 1017.8
20210512201005 62 350 1.0 6.0 0.00 0.00 0.00 37 1017.4
20210512200505 62 12 2.0 7.0 0.00 0.00 0.00 35 1017.4
20210512194506 63 349 2.0 8.0 0.00 0.00 0.00 32 1017.2
20210512192506 63 351 2.0 8.0 0.00 0.00 0.00 35 1017.1
20210512192005 63 11 2.0 8.0 0.00 0.00 0.00 33 1017.1
20210512190505 63 357 2.0 10.0 0.00 0.00 0.00 36 1017.1
20210512190005 63 8 1.0 6.0 0.00 0.00 0.00 36 1017.1
20210512182506 63 353 1.0 7.0 0.00 0.00 0.00 39 1017.4
20210512182005 63 352 1.0 8.0 0.00 0.00 0.00 38 1017.4
20210512173505 61 350 2.0 7.0 0.00 0.00 0.00 41 1017.4
20210512173005 61 339 1.0 4.0 0.00 0.00 0.00 44 1017.4
20210512155505 63 339 1.0 4.0 0.00 0.00 0.00 47 1017.3
20210512155005 63 331 1.0 6.0 0.00 0.00 0.00 48 1017.3
20210512154505 63 330 1.0 6.0 0.00 0.00 0.00 48 1017.3
20210512154005 62 331 1.0 6.0 0.00 0.00 0.00 46 1017.4
20210512152505 61 341 1.0 6.0 0.00 0.00 0.00 47 1017.1
20210512150505 59 354 1.0 6.0 0.00 0.00 0.00 51 1017.1
20210512143005 56 345 1.0 4.0 0.00 0.00 0.00 59 1017.0
20210512142505 55 321 0.0 2.0 0.00 0.00 0.00 60 1016.9
20210512142005 55 257 0.0 4.0 0.00 0.00 0.00 60 1016.9
20210512135005 54 316 1.0 4.0 0.00 0.00 0.00 64 1016.9
20210512132005 52 17 1.0 8.0 0.00 0.00 0.00 64 1016.8
20210512123505 49 321 1.0 4.0 0.00 0.00 0.00 71 1016.5
20210512123004 49 319 1.0 4.0 0.00 0.00 0.00 72 1016.4
20210512120505 47 328 1.0 4.0 0.00 0.00 0.00 73 1016.1
20210512114504 46 350 0.0 2.0 0.00 0.00 0.00 79 1015.8
20210512114004 45 354 1.0 6.0 0.00 0.00 0.00 78 1015.8
20210512112504 44 23 1.0 6.0 0.00 0.00 0.00 79 1015.4
20210512102504 41 0 0.0 0.0 0.00 0.00 0.00 82 1014.9
20210512102004 41 0 0.0 0.0 0.00 0.00 0.00 81 1014.9
20210512095504 41 0 0.0 0.0 0.00 0.00 0.00 78 1014.8
20210512095004 41 0 0.0 0.0 0.00 0.00 0.00 78 1014.8
20210512083005 42 0 0.0 0.0 0.00 0.00 0.00 74 1013.7
20210512081505 42 0 0.0 0.0 0.00 0.00 0.00 73 1013.6
20210512080006 42 0 0.0 0.0 0.00 0.00 0.00 72 1013.6
20210512074006 42 0 0.0 0.0 0.00 0.00 0.00 72 1013.3
20210512071005 42 0 0.0 0.0 0.00 0.00 0.00 68 1013.3
20210512070505 42 0 0.0 0.0 0.00 0.00 0.00 68 1013.3
20210512070006 42 0 0.0 0.0 0.00 0.00 0.00 68 1013.3
20210512065506 42 0 0.0 0.0 0.00 0.00 0.00 68 1013.3
20210512065005 42 0 0.0 0.0 0.00 0.00 0.00 68 1013.3
20210512064506 43 188 0.0 2.0 0.00 0.00 0.00 68 1013.3
20210512064005 43 188 0.0 2.0 0.00 0.00 0.00 68 1013.4
20210512063516 43 0 0.0 0.0 0.00 0.00 0.00 68 1013.4
20210512063018 43 0 0.0 0.0 0.00 0.00 0.00 66 1013.4
20210512061011 43 0 0.0 0.0 0.00 0.00 0.00 65 1013.5
20210512060516 43 0 0.0 0.0 0.00 0.00 0.00 64 1013.5
20210512060028 43 0 0.0 0.0 0.00 0.00 0.00 64 1013.5
20210512055516 43 0 0.0 0.0 0.00 0.00 0.00 64 1013.6
20210512051006 44 0 0.0 0.0 0.00 0.00 0.00 60 1013.8
20210512050505 44 0 0.0 0.0 0.00 0.00 0.00 61 1013.8
20210512050005 44 0 0.0 0.0 0.00 0.00 0.00 61 1013.8
20210512043505 46 0 0.0 0.0 0.00 0.00 0.00 62 1013.7
20210512043005 46 0 0.0 0.0 0.00 0.00 0.00 63 1013.7
20210512042505 46 0 0.0 0.0 0.00 0.00 0.00 61 1013.7
20210512034005 46 0 0.0 0.0 0.00 0.00 0.00 58 1013.8
20210512033505 47 0 0.0 0.0 0.00 0.00 0.00 57 1013.8
20210512025505 48 0 0.0 0.0 0.00 0.00 0.00 52 1013.8
20210512025005 48 0 0.0 0.0 0.00 0.00 0.00 52 1013.8
20210512024505 48 0 0.0 0.0 0.00 0.00 0.00 53 1013.8
20210512024005 48 0 0.0 0.0 0.00 0.00 0.00 51 1013.8
20210512023505 48 0 0.0 0.0 0.00 0.00 0.00 50 1013.8
20210512021005 49 0 0.0 0.0 0.00 0.00 0.00 48 1013.7
20210512020505 50 0 0.0 0.0 0.00 0.00 0.00 48 1013.7
20210512020004 50 0 0.0 0.0 0.00 0.00 0.00 47 1013.7
20210512015505 50 0 0.0 0.0 0.00 0.00 0.00 46 1013.6
20210512015005 50 0 0.0 0.0 0.00 0.00 0.00 46 1013.6
20210512014504 50 0 0.0 0.0 0.00 0.00 0.00 46 1013.6
20210512014005 50 0 0.0 0.0 0.00 0.00 0.00 45 1013.5
20210512013505 50 0 0.0 0.0 0.00 0.00 0.00 44 1013.5
20210512011504 50 0 0.0 0.0 0.00 0.00 0.00 43 1013.4
20210512011005 50 0 0.0 0.0 0.00 0.00 0.00 43 1013.3
20210512010505 50 0 0.0 0.0 0.00 0.00 0.00 43 1013.3
20210512010004 51 186 0.0 1.0 0.00 0.00 0.00 43 1013.1
20210512005505 51 186 0.0 1.0 0.00 0.00 0.00 43 1013.1
20210512004505 52 0 0.0 0.0 0.00 0.00 0.00 44 1013.2
20210512003004 52 0 0.0 0.0 0.00 0.00 0.00 39 1012.9
20210512002505 53 0 0.0 0.0 0.00 0.00 0.00 38 1012.7
20210512002005 53 0 0.0 0.0 0.00 0.00 0.00 41 1012.7
20210512001505 53 0 0.0 0.0 0.00 0.00 0.00 41 1012.7
20210512001004 54 0 0.0 0.0 0.00 0.00 0.00 39 1012.7
20210512000505 54 0 0.0 0.0 0.00 0.00 0.00 36 1012.6
20210512000005 54 0 0.0 0.0 0.00 0.00 0.00 35 1012.5
20210511235005 54 0 0.0 0.0 0.00 0.00 0.00 35 1012.5
20210511234505 54 0 0.0 0.0 0.00 0.00 0.00 32 1012.5
20210511233505 55 0 0.0 0.0 0.00 0.00 0.00 34 1012.5
20210511233005 55 352 0.0 2.0 0.00 0.00 0.00 33 1012.5
20210511232004 55 0 0.0 0.0 0.00 0.00 0.00 36 1012.3
20210511231505 55 326 0.0 6.0 0.00 0.00 0.00 35 1012.3
20210511223005 57 264 1.0 6.0 0.00 0.00 0.00 33 1012.0
20210511222504 57 33 0.0 1.0 0.00 0.00 0.00 34 1011.9
20210511221004 57 269 0.0 6.0 0.00 0.00 0.00 32 1011.8
20210511215505 57 332 0.0 2.0 0.00 0.00 0.00 33 1011.7
20210511215004 57 353 0.0 2.0 0.00 0.00 0.00 36 1011.7